Hauptseite
METAR-TAF:

METAR-TAF

Flughäfen :

Fliegerhorst Holzdorf

Holzdorf, Deutschland

Breite: 51-46N, Länge: 013-11E, Höhe: 79 m

Beobachtung

Neuester Wetterbericht von vor 10 Minuten, um 03:20 UTC
Wind 4 kt aus Nordost
Temperatur 12°C
Luftfeuchtigkeit 76%
Luftdruck 1020 hPa
Sichtweite 10 km oder mehr
Leicht bewölkt in der Höhe von 25000 ft

METAR: ETSH 250320Z 04004KT 9999 FEW250 12/08 Q1020 BLU+BLU+

Zeit: 05:30 (03:30 UTC)

Prognose

Neuester Wetterbericht von vor 14 Stunden und 7 Minuten, um 13:23 UTC
Gültige Prognose vom 24 um 14 UTC bis 24 um 23 UTC
Wind 15 kt aus Ost, Böen bis zu 25 kt
Sichtweite 10 km oder mehr
Leicht bewölkt in der Höhe von 6000 ft
Durchbrochene Bewölkung in der Höhe von 25000 ft

TAF: ETSH 241323Z 2414/2423 08015G25KT 9999 NSW FEW060 BKN250

Wetterbeobachtungen und Prognosen von mehr als 4000 Flughäfen (METAR und TAF Bericht).

Die verfügbaren Stationen werden durch gelbe und rote Markierungen auf der Karte dargestellt.

Führen Sie die Maus auf sie, um den Namen der Station zu sehen.

Darauf klicken, um die Beobachtung von Wetterbeobachtungen und Prognosen zu sehen.

Um die Karte zu ändern : klicken Sie auf den grünen Tasten mit einem schwarzen Kreuz Zum Vergrößern, auf den grünen Button mit einem Gedankenstrich zu verkleinern, oder auf die grünen Pfeile für benachbarte Karten.


METAR-TAF: